Time;durP1;ratioP1;P1;durP2;ratioP2;P2;SDS_P1;SDS_P2;PMS_P1;PMS_P2;Temp;Humidity;BMP_temperature;BMP_pressure;BME280_temperature;BME280_humidity;BME280_pressure;Samples;Min_cycle;Max_cycle;Signal;HPM_P1;HPM_P2
2021/03/14 00:02:08;;;;;;;4.20;1.80;;;5.50;91.50;;;;;;5094587;28;20976;-71
2021/03/14 00:04:35;;;;;;;3.27;2.03;;;5.50;91.40;;;;;;5094901;28;20432;-71
2021/03/14 00:07:02;;;;;;;6.47;2.23;;;5.50;91.30;;;;;;5094429;28;20464;-72
2021/03/14 00:09:29;;;;;;;4.97;1.80;;;5.50;91.40;;;;;;5094362;28;20965;-71
2021/03/14 00:11:55;;;;;;;6.23;3.50;;;5.50;91.50;;;;;;5094660;28;20459;-71
2021/03/14 00:14:21;;;;;;;7.00;2.30;;;5.50;91.50;;;;;;5094633;28;20450;-72
2021/03/14 00:16:48;;;;;;;4.50;2.67;;;5.50;91.70;;;;;;5094215;28;20785;-71
2021/03/14 00:19:14;;;;;;;4.20;1.90;;;5.40;91.60;;;;;;5094405;28;20456;-71
2021/03/14 00:21:40;;;;;;;8.10;2.30;;;5.50;91.80;;;;;;5094185;28;20949;-71
2021/03/14 00:24:07;;;;;;;6.30;2.37;;;5.50;91.80;;;;;;5094506;28;20450;-71
2021/03/14 00:26:34;;;;;;;5.00;2.10;;;5.40;91.80;;;;;;5094422;28;20489;-71
2021/03/14 00:29:00;;;;;;;6.90;2.10;;;5.50;91.90;;;;;;5093975;28;21035;-71
2021/03/14 00:31:26;;;;;;;5.80;2.63;;;5.50;91.80;;;;;;5094363;28;20471;-71
2021/03/14 00:33:53;;;;;;;6.73;3.00;;;5.50;91.80;;;;;;5094284;28;20457;-71
2021/03/14 00:36:19;;;;;;;3.23;2.53;;;5.50;92.00;;;;;;5094200;28;20455;-71
2021/03/14 00:38:45;;;;;;;7.67;2.43;;;5.50;91.90;;;;;;5093824;28;20981;-72
2021/03/14 00:41:11;;;;;;;4.57;3.00;;;5.50;91.90;;;;;;5094105;28;20468;-71
2021/03/14 00:43:38;;;;;;;6.50;2.60;;;5.50;91.90;;;;;;5093434;28;20443;-71
2021/03/14 00:46:05;;;;;;;7.93;2.57;;;5.40;91.90;;;;;;5093771;28;20824;-71
2021/03/14 00:48:31;;;;;;;7.60;2.20;;;5.50;91.90;;;;;;5093928;28;20468;-71
2021/03/14 00:50:57;;;;;;;7.20;2.40;;;5.50;91.90;;;;;;5093984;28;20491;-71
2021/03/14 00:53:23;;;;;;;5.17;2.57;;;5.50;91.80;;;;;;5093884;28;20489;-71
2021/03/14 00:55:50;;;;;;;10.47;2.67;;;5.50;91.70;;;;;;5093603;28;20440;-71
2021/03/14 00:58:16;;;;;;;5.83;2.20;;;5.50;91.70;;;;;;5093896;28;20435;-71
2021/03/14 01:00:43;;;;;;;4.30;2.13;;;5.50;91.80;;;;;;5093996;28;20479;-71
2021/03/14 01:03:09;;;;;;;5.70;2.40;;;5.50;91.80;;;;;;5093858;28;20455;-71
2021/03/14 01:05:36;;;;;;;5.67;2.03;;;5.60;91.80;;;;;;5093405;28;21051;-72
2021/03/14 01:08:02;;;;;;;4.50;2.37;;;5.60;91.80;;;;;;5093694;28;20451;-71
2021/03/14 01:10:28;;;;;;;4.53;2.20;;;5.60;91.80;;;;;;5093464;28;20440;-71
2021/03/14 01:12:55;;;;;;;10.73;2.43;;;5.60;91.50;;;;;;5093746;28;20926;-72
2021/03/14 01:15:21;;;;;;;9.43;2.87;;;5.70;91.50;;;;;;5093666;28;20439;-72
2021/03/14 01:17:48;;;;;;;7.43;2.30;;;5.60;91.40;;;;;;5093687;28;20427;-71
2021/03/14 01:20:16;;;;;;;3.93;1.80;;;5.60;91.60;;;;;;5093475;28;20488;-72
2021/03/14 01:22:43;;;;;;;5.93;2.20;;;5.60;91.60;;;;;;5093632;28;20451;-71
2021/03/14 01:25:10;;;;;;;3.63;1.93;;;5.60;91.50;;;;;;5093584;28;20450;-71
2021/03/14 01:27:37;;;;;;;4.40;1.50;;;5.70;91.50;;;;;;5093634;28;20435;-71
2021/03/14 01:30:05;;;;;;;5.17;1.53;;;5.70;91.50;;;;;;5093458;28;20455;-71
2021/03/14 01:32:32;;;;;;;5.23;1.30;;;5.70;91.30;;;;;;5093418;28;20486;-71
2021/03/14 01:34:59;;;;;;;9.03;2.47;;;5.70;91.30;;;;;;5093520;28;20451;-71
2021/03/14 01:37:25;;;;;;;3.47;1.60;;;5.80;91.30;;;;;;5093456;28;20447;-71
2021/03/14 01:39:51;;;;;;;4.43;1.97;;;5.70;91.10;;;;;;5093289;28;20483;-71
2021/03/14 01:42:25;;;;;;;4.30;1.10;;;5.80;91.10;;;;;;5093376;28;20439;-71
2021/03/14 01:44:51;;;;;;;6.00;1.70;;;5.80;91.20;;;;;;5093401;28;20428;-71
2021/03/14 01:47:18;;;;;;;4.27;1.10;;;5.70;91.10;;;;;;5093001;28;20949;-71
2021/03/14 01:49:45;;;;;;;2.73;1.20;;;5.80;91.20;;;;;;5093259;28;20460;-71
2021/03/14 01:52:12;;;;;;;4.27;1.37;;;5.70;90.80;;;;;;5093317;28;20447;-71
2021/03/14 01:54:38;;;;;;;5.03;1.20;;;5.70;91.00;;;;;;5094981;28;20452;-71
2021/03/14 01:57:05;;;;;;;6.90;1.40;;;5.60;91.00;;;;;;5097283;28;20447;-71
2021/03/14 01:59:31;;;;;;;2.77;1.10;;;5.70;91.10;;;;;;5096807;28;20479;-71
2021/03/14 02:01:57;;;;;;;3.17;1.50;;;5.70;90.90;;;;;;5096904;28;20447;-71
2021/03/14 02:04:23;;;;;;;6.20;1.80;;;5.70;90.90;;;;;;5097149;28;20443;-71
2021/03/14 02:06:50;;;;;;;3.63;1.10;;;5.70;90.90;;;;;;5096905;28;20454;-71
2021/03/14 02:09:17;;;;;;;6.40;3.10;;;5.70;90.90;;;;;;5097000;28;20490;-71
2021/03/14 02:11:45;;;;;;;3.00;1.30;;;5.80;91.10;;;;;;5097806;28;20440;-71
2021/03/14 02:14:13;;;;;;;3.17;1.07;;;5.80;90.90;;;;;;5096961;28;20447;-71
2021/03/14 02:16:43;;;;;;;3.90;1.37;;;5.80;90.80;;;;;;5096888;28;20444;-72
2021/03/14 02:19:13;;;;;;;3.70;1.73;;;5.80;91.00;;;;;;5096465;28;20474;-71
2021/03/14 02:21:40;;;;;;;3.10;1.10;;;5.80;90.80;;;;;;5096835;28;20761;-71
2021/03/14 02:24:14;;;;;;;4.77;1.77;;;5.70;91.00;;;;;;5096789;28;20462;-71
2021/03/14 02:26:53;;;;;;;4.30;1.50;;;5.70;91.10;;;;;;5096471;28;20910;-71
2021/03/14 02:29:21;;;;;;;6.30;1.87;;;5.70;91.20;;;;;;5096631;28;20455;-72
2021/03/14 02:31:50;;;;;;;2.63;1.37;;;5.70;91.20;;;;;;5096626;28;20441;-71
2021/03/14 02:34:22;;;;;;;3.83;1.43;;;5.60;91.10;;;;;;5096331;28;20810;-71
2021/03/14 02:36:50;;;;;;;2.53;1.10;;;5.60;91.30;;;;;;5096589;28;20431;-72
2021/03/14 02:39:19;;;;;;;3.87;1.77;;;5.60;91.20;;;;;;5096363;28;20470;-71
2021/03/14 02:41:47;;;;;;;4.30;1.40;;;5.60;91.10;;;;;;5096402;28;20447;-71
2021/03/14 02:44:15;;;;;;;7.97;1.80;;;5.60;91.10;;;;;;5096008;28;20941;-71
2021/03/14 02:46:42;;;;;;;5.33;2.13;;;5.60;91.20;;;;;;5096347;28;20443;-71
2021/03/14 02:49:09;;;;;;;7.27;1.60;;;5.50;91.20;;;;;;5096809;28;20467;-71
2021/03/14 02:51:39;;;;;;;4.00;1.73;;;5.50;91.40;;;;;;5096294;28;20442;-71
2021/03/14 02:54:06;;;;;;;5.67;1.37;;;5.50;91.30;;;;;;5096254;28;20473;-71
2021/03/14 02:56:32;;;;;;;5.83;1.70;;;5.50;91.30;;;;;;5096186;28;20455;-71
2021/03/14 02:59:00;;;;;;;5.57;1.90;;;5.40;91.40;;;;;;5096103;28;20521;-72
2021/03/14 03:01:27;;;;;;;2.50;1.40;;;5.50;91.40;;;;;;5096061;28;20480;-71
2021/03/14 03:03:57;;;;;;;1.90;1.50;;;5.40;91.40;;;;;;5096067;28;20493;-72
2021/03/14 03:06:23;;;;;;;2.43;1.40;;;5.40;91.40;;;;;;5095018;28;20456;-71
2021/03/14 03:08:50;;;;;;;4.77;1.67;;;5.30;91.50;;;;;;5095905;28;20468;-72
2021/03/14 03:11:18;;;;;;;7.37;2.30;;;5.40;91.60;;;;;;5095896;28;20808;-71
2021/03/14 03:13:44;;;;;;;3.30;1.57;;;5.30;91.50;;;;;;5096546;28;20444;-71
2021/03/14 03:16:15;;;;;;;7.43;1.90;;;5.30;91.50;;;;;;5095808;28;20441;-72
2021/03/14 03:18:44;;;;;;;6.93;1.60;;;5.30;91.70;;;;;;5095723;28;20520;-71
2021/03/14 03:21:11;;;;;;;3.13;1.43;;;5.30;91.80;;;;;;5095573;28;20475;-71
2021/03/14 03:23:38;;;;;;;2.33;1.43;;;5.30;91.80;;;;;;5095698;28;20439;-71
2021/03/14 03:26:06;;;;;;;10.67;2.10;;;5.30;91.70;;;;;;5095622;28;20500;-71
2021/03/14 03:28:32;;;;;;;8.10;1.80;;;5.30;91.80;;;;;;5095224;28;20464;-71
2021/03/14 03:30:59;;;;;;;4.63;1.27;;;5.30;91.90;;;;;;5095512;28;20505;-71
2021/03/14 03:33:25;;;;;;;5.40;2.47;;;5.30;91.90;;;;;;5095489;28;20874;-71
2021/03/14 03:35:52;;;;;;;4.20;1.60;;;5.30;92.30;;;;;;5095500;28;20459;-72
2021/03/14 03:38:18;;;;;;;4.77;1.70;;;5.40;91.90;;;;;;5095263;28;20475;-72
2021/03/14 03:40:45;;;;;;;5.87;1.63;;;5.30;91.70;;;;;;5095205;28;20475;-72
2021/03/14 03:43:15;;;;;;;5.37;2.00;;;5.30;91.80;;;;;;5095262;28;20504;-72
2021/03/14 03:45:46;;;;;;;8.20;1.57;;;5.30;91.70;;;;;;5095259;28;20420;-71
2021/03/14 03:48:18;;;;;;;4.60;1.63;;;5.40;91.80;;;;;;5095189;28;20428;-71
2021/03/14 03:50:45;;;;;;;6.23;2.40;;;5.40;91.80;;;;;;5095179;28;20416;-71
2021/03/14 03:53:14;;;;;;;7.10;2.10;;;5.40;91.80;;;;;;5095088;28;20439;-72
2021/03/14 03:55:43;;;;;;;8.43;2.33;;;5.40;91.80;;;;;;5095274;28;20436;-72
2021/03/14 03:58:10;;;;;;;3.97;1.67;;;5.40;91.80;;;;;;5095115;28;20439;-71
2021/03/14 04:00:37;;;;;;;3.20;1.67;;;5.40;92.00;;;;;;5094892;28;20525;-72
2021/03/14 04:03:04;;;;;;;4.67;1.80;;;5.40;91.90;;;;;;5094918;28;20440;-71
2021/03/14 04:05:31;;;;;;;4.43;1.90;;;5.40;91.80;;;;;;5094441;28;20981;-71
2021/03/14 04:07:58;;;;;;;11.27;2.60;;;5.40;91.80;;;;;;5094792;28;20791;-71
2021/03/14 04:10:27;;;;;;;5.63;2.13;;;5.40;91.90;;;;;;5094660;28;20467;-72
2021/03/14 04:12:54;;;;;;;6.27;2.40;;;5.30;91.80;;;;;;5094402;28;20938;-71
2021/03/14 04:15:25;;;;;;;7.03;1.90;;;5.30;91.90;;;;;;5094620;28;20471;-71
2021/03/14 04:17:52;;;;;;;4.37;1.90;;;5.40;92.00;;;;;;5094262;28;20440;-71
2021/03/14 04:20:21;;;;;;;7.60;2.87;;;5.30;92.20;;;;;;5094367;28;20814;-71
2021/03/14 04:22:52;;;;;;;7.93;3.40;;;5.40;91.90;;;;;;5094551;28;20443;-71
2021/03/14 04:25:19;;;;;;;4.30;2.17;;;5.40;91.80;;;;;;5094565;28;20428;-71
2021/03/14 04:27:49;;;;;;;4.93;2.20;;;5.30;91.80;;;;;;5094435;28;20448;-71
2021/03/14 04:30:16;;;;;;;5.63;1.90;;;5.30;92.00;;;;;;5094330;28;20456;-71
2021/03/14 04:32:43;;;;;;;7.17;2.87;;;5.30;91.90;;;;;;5094364;28;20448;-71
2021/03/14 04:35:11;;;;;;;8.37;1.87;;;5.30;91.90;;;;;;5094274;28;20447;-71
2021/03/14 04:37:39;;;;;;;12.10;2.40;;;5.20;91.80;;;;;;5093932;28;20949;-71
2021/03/14 04:40:08;;;;;;;11.93;2.40;;;5.20;91.90;;;;;;5095225;28;20487;-71
2021/03/14 04:42:35;;;;;;;7.87;2.53;;;5.20;91.90;;;;;;5094131;28;20440;-71
2021/03/14 04:45:04;;;;;;;9.03;2.40;;;5.20;91.80;;;;;;5094184;28;20440;-71
2021/03/14 04:47:31;;;;;;;4.77;2.13;;;5.20;91.70;;;;;;5094066;28;20440;-71
2021/03/14 04:49:57;;;;;;;7.47;2.40;;;5.20;91.70;;;;;;5094053;28;20594;-71
2021/03/14 04:52:24;;;;;;;5.37;2.20;;;5.20;91.60;;;;;;5094049;28;20444;-71
2021/03/14 04:54:51;;;;;;;4.40;2.30;;;5.20;91.60;;;;;;5093978;28;20444;-71
2021/03/14 04:57:19;;;;;;;4.83;2.67;;;5.20;91.70;;;;;;5093593;28;20817;-71
2021/03/14 04:59:46;;;;;;;6.63;1.97;;;5.20;91.70;;;;;;5093411;28;20989;-71
2021/03/14 05:02:14;;;;;;;4.60;2.17;;;5.10;91.60;;;;;;5093881;28;20443;-71
2021/03/14 05:04:43;;;;;;;7.90;2.00;;;5.10;91.70;;;;;;5093844;28;20451;-71
2021/03/14 05:07:11;;;;;;;10.37;2.53;;;5.00;91.80;;;;;;5093398;28;20451;-71
2021/03/14 05:09:38;;;;;;;4.47;2.00;;;5.00;91.80;;;;;;5093682;28;20460;-71
2021/03/14 05:12:06;;;;;;;9.53;2.77;;;5.00;91.90;;;;;;5093768;28;20451;-71
2021/03/14 05:14:34;;;;;;;7.87;2.57;;;5.00;91.80;;;;;;5093720;28;20451;-71
2021/03/14 05:17:00;;;;;;;14.67;2.23;;;5.00;91.60;;;;;;5093680;28;20455;-71
2021/03/14 05:19:28;;;;;;;8.03;2.03;;;5.00;91.90;;;;;;5093595;28;20468;-71
2021/03/14 05:21:54;;;;;;;9.20;2.10;;;5.00;91.90;;;;;;5093244;28;20985;-71
2021/03/14 05:24:21;;;;;;;9.17;2.10;;;4.90;91.90;;;;;;5093306;28;20440;-71
2021/03/14 05:26:48;;;;;;;12.87;2.83;;;5.00;92.00;;;;;;5093579;28;20439;-71
2021/03/14 05:29:16;;;;;;;12.23;2.43;;;5.00;92.00;;;;;;5096121;28;20999;-71
2021/03/14 05:31:42;;;;;;;6.87;2.40;;;5.00;92.00;;;;;;5100288;28;20530;-71
2021/03/14 05:34:13;;;;;;;7.27;2.47;;;5.00;91.90;;;;;;5099934;28;20933;-71
2021/03/14 05:36:40;;;;;;;6.93;2.20;;;5.00;92.00;;;;;;5100327;28;20833;-71
2021/03/14 05:39:08;;;;;;;7.13;1.90;;;5.00;91.90;;;;;;5100188;28;20532;-71
2021/03/14 05:41:36;;;;;;;6.87;3.13;;;5.00;91.90;;;;;;5100098;28;20832;-71
2021/03/14 05:44:04;;;;;;;8.03;2.37;;;5.00;91.90;;;;;;5099910;28;20902;-71
2021/03/14 05:46:30;;;;;;;7.40;2.30;;;5.00;91.90;;;;;;5100157;28;20468;-71
2021/03/14 05:48:57;;;;;;;4.90;2.50;;;5.00;91.80;;;;;;5100082;28;20470;-71
2021/03/14 05:51:26;;;;;;;6.60;3.43;;;5.00;91.90;;;;;;5100084;28;20432;-71
2021/03/14 05:53:55;;;;;;;7.70;2.37;;;4.90;92.00;;;;;;5100051;28;20530;-71
2021/03/14 05:56:22;;;;;;;8.33;2.60;;;4.90;92.20;;;;;;5100009;28;20450;-71
2021/03/14 05:58:50;;;;;;;6.13;2.20;;;4.90;92.20;;;;;;5099953;28;20459;-71
2021/03/14 06:01:18;;;;;;;12.77;2.60;;;5.00;92.10;;;;;;5100207;28;20481;-71
2021/03/14 06:03:44;;;;;;;10.63;2.77;;;5.00;92.00;;;;;;5099990;28;20457;-71
2021/03/14 06:06:14;;;;;;;8.90;2.90;;;5.00;92.10;;;;;;5099701;28;20455;-71
2021/03/14 06:08:40;;;;;;;8.93;2.30;;;5.00;92.10;;;;;;5100112;28;20463;-71
2021/03/14 06:11:09;;;;;;;10.30;3.10;;;5.00;92.20;;;;;;5099966;28;20450;-71
2021/03/14 06:13:35;;;;;;;11.43;3.43;;;5.00;92.10;;;;;;5100133;28;20454;-71
2021/03/14 06:16:03;;;;;;;6.00;2.17;;;5.00;92.10;;;;;;5099565;28;21005;-71
2021/03/14 06:18:29;;;;;;;9.37;3.17;;;5.00;92.10;;;;;;5099820;28;20459;-71
2021/03/14 06:20:56;;;;;;;18.00;3.83;;;5.00;92.30;;;;;;5099814;28;20483;-71
2021/03/14 06:23:23;;;;;;;13.97;3.10;;;5.00;92.20;;;;;;5099815;28;20443;-71
2021/03/14 06:25:52;;;;;;;7.17;2.60;;;5.00;92.20;;;;;;5099746;28;20447;-71
2021/03/14 06:28:32;;;;;;;7.63;2.43;;;5.00;92.30;;;;;;5099361;28;20946;-71
2021/03/14 06:30:58;;;;;;;10.73;2.97;;;5.10;92.20;;;;;;5099466;28;20898;-71
2021/03/14 06:33:27;;;;;;;8.03;2.73;;;5.10;92.20;;;;;;5099710;28;20447;-71
2021/03/14 06:35:54;;;;;;;17.60;2.97;;;5.10;92.20;;;;;;5099356;28;20851;-71
2021/03/14 06:38:26;;;;;;;8.03;2.30;;;5.00;92.20;;;;;;5099318;28;20948;-71
2021/03/14 06:41:11;;;;;;;6.33;2.13;;;5.10;92.20;;;;;;5096831;28;20467;-71
2021/03/14 06:43:40;;;;;;;8.13;2.70;;;5.10;92.10;;;;;;5096209;28;20858;-71
2021/03/14 06:46:19;;;;;;;9.73;2.30;;;5.10;92.00;;;;;;5096451;28;20452;-71
2021/03/14 06:48:45;;;;;;;6.77;2.37;;;5.20;92.00;;;;;;5096046;28;21012;-71
2021/03/14 06:51:11;;;;;;;17.50;2.90;;;5.30;91.90;;;;;;5096341;28;20498;-71
2021/03/14 06:53:37;;;;;;;6.43;2.50;;;5.40;91.80;;;;;;5096572;28;20591;-71
2021/03/14 06:56:06;;;;;;;8.30;2.47;;;5.40;91.60;;;;;;5096161;28;20467;-71
2021/03/14 06:58:33;;;;;;;5.43;2.60;;;5.40;91.70;;;;;;5095831;28;20877;-71
2021/03/14 07:01:08;;;;;;;8.00;3.10;;;5.40;91.60;;;;;;5096078;28;20475;-71
2021/03/14 07:03:36;;;;;;;6.90;2.57;;;5.50;91.70;;;;;;5096157;28;20423;-71
2021/03/14 07:06:16;;;;;;;6.80;2.53;;;5.50;91.70;;;;;;5095806;28;20547;-71
2021/03/14 07:08:43;;;;;;;7.43;2.63;;;5.60;91.50;;;;;;5096111;28;20463;-71
2021/03/14 07:11:10;;;;;;;12.83;2.47;;;5.60;91.60;;;;;;5095904;28;20497;-71
2021/03/14 07:13:37;;;;;;;11.93;2.87;;;5.70;91.20;;;;;;5096114;28;20455;-71
2021/03/14 07:16:04;;;;;;;7.50;2.97;;;5.70;91.50;;;;;;5095846;28;20440;-71
2021/03/14 07:18:33;;;;;;;9.20;2.37;;;5.80;91.30;;;;;;5095449;28;20969;-71
2021/03/14 07:20:59;;;;;;;11.80;2.13;;;5.80;91.20;;;;;;5095375;28;20546;-71
2021/03/14 07:23:33;;;;;;;9.00;3.20;;;5.80;91.30;;;;;;5095667;28;20467;-71
2021/03/14 07:25:59;;;;;;;8.07;2.67;;;5.80;91.50;;;;;;5095327;28;20820;-71
2021/03/14 07:28:26;;;;;;;10.50;3.00;;;5.70;91.60;;;;;;5095514;28;20467;-71
2021/03/14 07:30:53;;;;;;;7.57;2.70;;;5.70;91.70;;;;;;5095591;28;20440;-71
2021/03/14 07:33:20;;;;;;;11.93;3.70;;;5.70;91.60;;;;;;5095474;28;20443;-71
2021/03/14 07:35:47;;;;;;;7.50;2.33;;;5.60;91.70;;;;;;5095481;28;20450;-71
2021/03/14 07:38:15;;;;;;;10.23;3.50;;;5.70;91.70;;;;;;5095403;28;20448;-71
2021/03/14 07:40:41;;;;;;;10.50;3.00;;;5.80;91.80;;;;;;5095269;28;20471;-71
2021/03/14 07:43:09;;;;;;;14.60;3.10;;;5.80;91.80;;;;;;5095292;28;20440;-71
2021/03/14 07:45:35;;;;;;;7.97;2.77;;;5.80;91.90;;;;;;5095254;28;20809;-71
2021/03/14 07:48:01;;;;;;;8.33;2.93;;;5.80;91.70;;;;;;5095230;28;20504;-71
2021/03/14 07:50:32;;;;;;;20.03;4.00;;;5.90;91.70;;;;;;5095203;28;20448;-71
2021/03/14 07:53:03;;;;;;;6.77;3.67;;;6.00;91.80;;;;;;5094756;28;20477;-71
2021/03/14 07:55:30;;;;;;;11.13;3.30;;;6.10;92.30;;;;;;5095029;28;20439;-71
2021/03/14 07:57:56;;;;;;;7.40;3.10;;;6.10;92.30;;;;;;5095017;28;20440;-71
2021/03/14 08:00:30;;;;;;;12.50;4.77;;;6.20;92.10;;;;;;5094802;28;20486;-71
2021/03/14 08:02:58;;;;;;;10.37;3.80;;;6.20;92.00;;;;;;5094928;28;20420;-71
2021/03/14 08:05:48;;;;;;;11.57;4.40;;;6.20;91.90;;;;;;5094729;28;20460;-71
2021/03/14 08:08:45;;;;;;;11.33;3.90;;;6.10;92.10;;;;;;5094791;28;20436;-70
2021/03/14 08:11:23;;;;;;;9.83;4.80;;;6.10;92.50;;;;;;5095055;28;20416;-70
2021/03/14 08:13:49;;;;;;;8.53;4.27;;;6.10;92.60;;;;;;5095227;28;20419;-71
2021/03/14 08:16:16;;;;;;;9.03;4.80;;;6.20;92.70;;;;;;5094322;28;20431;-71
2021/03/14 08:18:44;;;;;;;11.00;4.70;;;6.30;92.50;;;;;;5094545;28;20806;-71
2021/03/14 08:21:41;;;;;;;12.43;4.10;;;6.40;92.40;;;;;;5094422;28;20541;-71
2021/03/14 08:24:11;;;;;;;12.60;4.53;;;6.40;91.90;;;;;;5094489;28;20448;-71
2021/03/14 08:26:38;;;;;;;12.97;4.67;;;6.50;91.80;;;;;;5094517;28;20477;-70
2021/03/14 08:29:05;;;;;;;7.80;4.17;;;6.50;91.80;;;;;;5094347;28;20901;-71
2021/03/14 08:31:39;;;;;;;12.87;5.00;;;6.50;91.90;;;;;;5094610;28;20489;-71
2021/03/14 08:34:07;;;;;;;12.80;4.73;;;6.50;92.10;;;;;;5094326;28;20440;-71
2021/03/14 08:36:35;;;;;;;12.77;4.60;;;6.50;92.00;;;;;;5094184;28;20447;-71
2021/03/14 08:39:02;;;;;;;5.67;3.17;;;6.50;92.40;;;;;;5094164;28;20878;-71
2021/03/14 08:41:39;;;;;;;11.40;4.40;;;6.50;92.00;;;;;;5094653;28;20482;-71
2021/03/14 08:44:08;;;;;;;11.17;4.10;;;6.50;92.20;;;;;;5094112;28;20518;-71
2021/03/14 08:47:05;;;;;;;11.07;4.10;;;6.40;92.00;;;;;;5094033;28;20855;-70
2021/03/14 08:49:33;;;;;;;7.40;4.67;;;6.30;92.30;;;;;;5093756;28;20976;-71
2021/03/14 08:52:00;;;;;;;9.83;4.87;;;6.20;92.80;;;;;;5093665;28;20440;-71
2021/03/14 08:54:31;;;;;;;7.33;4.00;;;6.20;93.00;;;;;;5093682;28;20950;-71
2021/03/14 08:57:01;;;;;;;5.93;5.30;;;6.10;92.70;;;;;;5093946;28;20485;-71
2021/03/14 08:59:27;;;;;;;10.97;6.00;;;6.20;92.90;;;;;;5094487;28;20513;-71
2021/03/14 09:01:58;;;;;;;8.50;4.67;;;6.20;92.90;;;;;;5093477;28;21050;-71
2021/03/14 09:04:28;;;;;;;7.80;4.73;;;6.30;93.10;;;;;;5093142;28;20437;-71
2021/03/14 09:07:02;;;;;;;6.87;4.57;;;6.30;93.10;;;;;;5093459;28;20455;-71
2021/03/14 09:09:28;;;;;;;7.80;4.50;;;6.40;92.90;;;;;;5094111;28;20509;-71
2021/03/14 09:11:55;;;;;;;6.77;4.50;;;6.40;92.70;;;;;;5093557;28;20844;-72
2021/03/14 09:14:34;;;;;;;9.87;4.23;;;6.50;92.70;;;;;;5093541;28;20448;-72
2021/03/14 09:17:05;;;;;;;13.03;4.60;;;6.50;92.80;;;;;;5093615;28;20427;-71
2021/03/14 09:19:41;;;;;;;6.00;5.03;;;6.50;92.90;;;;;;5093635;28;20506;-71
2021/03/14 09:22:11;;;;;;;7.27;5.10;;;6.50;93.20;;;;;;5093546;28;20463;-71
2021/03/14 09:24:40;;;;;;;6.57;4.50;;;6.40;93.50;;;;;;5093568;28;20861;-71
2021/03/14 09:27:09;;;;;;;12.00;4.10;;;6.30;93.70;;;;;;5093592;28;20470;-71
2021/03/14 09:29:48;;;;;;;8.27;4.53;;;6.40;94.10;;;;;;5093681;28;20463;-71
2021/03/14 09:32:31;;;;;;;5.17;3.77;;;6.40;93.60;;;;;;5093194;28;20484;-71
2021/03/14 09:35:16;;;;;;;7.33;3.90;;;6.40;94.10;;;;;;5093227;28;20913;-71
2021/03/14 09:37:44;;;;;;;6.87;5.00;;;6.40;94.50;;;;;;5093463;28;20467;-71
2021/03/14 09:40:14;;;;;;;7.73;4.90;;;6.40;94.40;;;;;;5093269;28;20803;-71
2021/03/14 09:42:41;;;;;;;5.73;4.90;;;6.40;94.30;;;;;;5093699;28;20446;-71
2021/03/14 09:45:11;;;;;;;8.20;3.87;;;6.40;94.20;;;;;;5093402;28;20493;-71
2021/03/14 09:47:56;;;;;;;12.50;5.63;;;6.60;94.20;;;;;;5093242;28;20953;-71
2021/03/14 09:50:22;;;;;;;6.17;5.03;;;6.70;94.50;;;;;;5093341;28;20486;-71
2021/03/14 09:52:48;;;;;;;7.43;5.50;;;6.70;93.90;;;;;;5093292;28;20444;-71
2021/03/14 09:55:22;;;;;;;8.43;4.90;;;6.90;93.60;;;;;;5093331;28;20439;-71
2021/03/14 09:57:48;;;;;;;8.27;5.67;;;7.00;93.50;;;;;;5093278;28;20428;-71
2021/03/14 10:00:21;;;;;;;6.10;4.83;;;7.00;92.90;;;;;;5093041;28;20464;-71
2021/03/14 10:02:48;;;;;;;5.43;4.90;;;7.00;92.80;;;;;;5093238;28;20428;-71
2021/03/14 10:05:14;;;;;;;5.80;4.97;;;6.90;92.70;;;;;;5092935;28;20451;-71
2021/03/14 10:07:40;;;;;;;8.03;5.43;;;7.00;92.60;;;;;;5093763;28;20444;-72
2021/03/14 10:10:10;;;;;;;5.20;4.57;;;6.90;92.60;;;;;;5093029;28;20463;-73
2021/03/14 10:12:38;;;;;;;5.03;4.33;;;7.00;92.30;;;;;;5093073;28;20466;-74
2021/03/14 10:15:06;;;;;;;8.47;5.03;;;7.00;92.50;;;;;;5093900;28;20454;-74
2021/03/14 10:17:34;;;;;;;7.97;5.00;;;7.10;92.40;;;;;;5096957;28;20497;-73
2021/03/14 10:20:00;;;;;;;5.90;4.50;;;7.20;92.40;;;;;;5097051;28;20468;-74
2021/03/14 10:22:31;;;;;;;5.13;4.63;;;7.40;92.40;;;;;;5096908;28;20424;-70
2021/03/14 10:24:57;;;;;;;4.67;4.27;;;7.30;91.90;;;;;;5096960;28;20443;-72
2021/03/14 10:27:25;;;;;;;4.53;4.10;;;7.30;91.90;;;;;;5096792;28;20443;-71
2021/03/14 10:29:58;;;;;;;4.83;4.43;;;7.20;91.70;;;;;;5096623;28;20460;-72
2021/03/14 10:32:27;;;;;;;5.13;4.63;;;7.10;91.90;;;;;;5096701;28;20427;-71
2021/03/14 10:34:56;;;;;;;6.37;4.67;;;7.00;92.40;;;;;;5096650;28;20433;-70
2021/03/14 10:37:30;;;;;;;5.67;4.77;;;7.00;92.60;;;;;;5096582;28;20449;-71
2021/03/14 10:39:58;;;;;;;6.10;5.57;;;6.90;93.50;;;;;;5096512;28;20516;-71
2021/03/14 10:42:31;;;;;;;7.60;5.43;;;7.00;93.50;;;;;;5096217;28;20460;-71
2021/03/14 10:45:12;;;;;;;6.70;5.03;;;7.10;92.90;;;;;;5096712;28;20428;-71
2021/03/14 10:47:40;;;;;;;5.53;4.57;;;7.10;93.10;;;;;;5096696;28;20428;-71
2021/03/14 10:50:18;;;;;;;6.13;5.10;;;7.10;93.00;;;;;;5096295;28;20460;-71
2021/03/14 10:52:44;;;;;;;6.03;5.53;;;7.10;92.90;;;;;;5096332;28;20825;-71
2021/03/14 10:55:30;;;;;;;6.20;5.33;;;7.20;92.80;;;;;;5096187;28;20948;-71
2021/03/14 10:58:11;;;;;;;6.03;4.70;;;7.30;93.60;;;;;;5096279;28;20435;-71
2021/03/14 11:00:42;;;;;;;5.23;4.80;;;7.80;92.70;;;;;;5096081;28;20478;-71
2021/03/14 11:03:12;;;;;;;5.50;4.00;;;8.00;91.30;;;;;;5095841;28;20915;-71
2021/03/14 11:05:41;;;;;;;5.50;4.70;;;8.20;91.10;;;;;;5095821;28;20506;-71
2021/03/14 11:08:08;;;;;;;7.73;5.90;;;8.40;90.90;;;;;;5095975;28;20447;-71
2021/03/14 11:10:35;;;;;;;5.50;5.00;;;8.50;90.70;;;;;;5095675;28;20937;-71
2021/03/14 11:13:14;;;;;;;6.30;4.90;;;8.50;90.20;;;;;;5095925;28;20485;-71
2021/03/14 11:15:41;;;;;;;5.97;4.80;;;8.50;90.30;;;;;;5095634;28;20918;-71
2021/03/14 11:18:07;;;;;;;5.40;5.00;;;8.50;90.00;;;;;;5095784;28;20420;-69
2021/03/14 11:20:34;;;;;;;8.03;5.73;;;8.40;90.30;;;;;;5095686;28;20475;-69
2021/03/14 11:23:01;;;;;;;5.47;4.97;;;8.30;90.20;;;;;;5095682;28;20500;-69
2021/03/14 11:25:28;;;;;;;8.33;5.70;;;8.40;90.30;;;;;;5095693;28;20431;-69
2021/03/14 11:27:55;;;;;;;5.17;4.67;;;8.50;90.70;;;;;;5094930;28;20424;-71
2021/03/14 11:30:24;;;;;;;5.03;4.50;;;8.70;90.20;;;;;;5095510;28;20494;-71
2021/03/14 11:32:50;;;;;;;4.37;3.93;;;8.90;88.60;;;;;;5095148;28;20443;-71
2021/03/14 11:35:17;;;;;;;5.27;4.30;;;8.90;88.40;;;;;;5095427;28;20440;-71
2021/03/14 11:37:43;;;;;;;6.57;4.77;;;9.00;89.40;;;;;;5095068;28;20452;-71
2021/03/14 11:40:12;;;;;;;5.00;4.50;;;9.20;88.50;;;;;;5095163;28;20540;-72
2021/03/14 11:42:39;;;;;;;4.47;4.17;;;9.20;87.90;;;;;;5095307;28;20451;-71
2021/03/14 11:45:07;;;;;;;5.13;4.63;;;9.10;85.90;;;;;;5095307;28;20497;-71
2021/03/14 11:47:34;;;;;;;5.80;5.30;;;9.00;86.40;;;;;;5094922;28;20814;-71
2021/03/14 11:50:00;;;;;;;6.97;5.93;;;9.00;87.50;;;;;;5096029;28;20475;-72
2021/03/14 11:52:27;;;;;;;7.80;6.47;;;9.10;86.50;;;;;;5095180;28;20428;-71
2021/03/14 11:54:54;;;;;;;6.10;5.50;;;9.20;87.10;;;;;;5095102;28;20450;-72
2021/03/14 11:57:21;;;;;;;8.00;6.77;;;9.30;86.30;;;;;;5095040;28;20448;-72
2021/03/14 11:59:47;;;;;;;7.07;6.03;;;9.30;87.60;;;;;;5094950;28;20460;-72
2021/03/14 12:02:13;;;;;;;5.93;5.10;;;9.40;87.30;;;;;;5094826;28;20471;-71
2021/03/14 12:04:39;;;;;;;6.80;5.97;;;9.60;83.50;;;;;;5094939;28;20432;-71
2021/03/14 12:07:06;;;;;;;6.03;5.40;;;9.70;84.90;;;;;;5094729;28;20459;-71
2021/03/14 12:09:32;;;;;;;6.77;6.17;;;9.80;83.90;;;;;;5094746;28;20517;-71
2021/03/14 12:11:59;;;;;;;6.50;5.90;;;9.90;83.50;;;;;;5094735;28;20481;-71
2021/03/14 12:14:26;;;;;;;7.03;6.37;;;10.00;82.50;;;;;;5094771;28;20448;-71
2021/03/14 12:16:53;;;;;;;8.30;5.67;;;10.00;84.10;;;;;;5094755;28;20435;-71
2021/03/14 12:19:19;;;;;;;6.03;5.43;;;10.20;82.60;;;;;;5094263;28;21023;-71
2021/03/14 12:21:45;;;;;;;6.73;6.03;;;10.20;79.40;;;;;;5094517;28;20475;-71
2021/03/14 12:24:11;;;;;;;6.17;5.67;;;10.60;78.20;;;;;;5094546;28;20444;-71
2021/03/14 12:26:38;;;;;;;6.60;5.80;;;10.90;77.20;;;;;;5094721;28;20447;-71
2021/03/14 12:29:06;;;;;;;5.83;5.43;;;11.00;75.00;;;;;;5094129;28;20981;-71
2021/03/14 12:31:33;;;;;;;7.10;5.20;;;11.00;75.30;;;;;;5094450;28;20491;-71
2021/03/14 12:34:00;;;;;;;5.60;5.10;;;10.80;74.40;;;;;;5094366;28;20447;-71
2021/03/14 12:36:26;;;;;;;5.97;5.47;;;10.60;74.70;;;;;;5094470;28;20431;-71
2021/03/14 12:38:52;;;;;;;6.67;5.57;;;10.40;76.90;;;;;;5093311;28;20493;-71
2021/03/14 12:41:18;;;;;;;5.17;4.67;;;10.10;77.40;;;;;;5094260;28;20842;-71
2021/03/14 12:43:45;;;;;;;8.40;4.53;;;9.90;80.70;;;;;;5094226;28;20473;-72
2021/03/14 12:46:11;;;;;;;5.50;4.57;;;10.10;80.50;;;;;;5094173;28;20444;-72
2021/03/14 12:48:38;;;;;;;5.10;4.70;;;10.40;78.30;;;;;;5094146;28;20460;-71
2021/03/14 12:51:04;;;;;;;6.47;4.50;;;10.70;75.90;;;;;;5094143;28;20514;-74
2021/03/14 12:53:30;;;;;;;5.57;4.77;;;10.90;72.40;;;;;;5093789;28;20933;-73
2021/03/14 12:55:57;;;;;;;4.40;4.00;;;11.00;74.70;;;;;;5094027;28;20440;-73
2021/03/14 12:58:23;;;;;;;7.70;4.60;;;10.90;72.40;;;;;;5093965;28;20447;-73
2021/03/14 13:00:49;;;;;;;4.07;3.60;;;11.00;74.40;;;;;;5093803;28;20480;-73
2021/03/14 13:03:15;;;;;;;5.33;3.87;;;11.20;73.60;;;;;;5093898;28;20427;-72